sensor_id;sensor_type;location;lat;lon;timestamp;P1;durP1;ratioP1;P2;durP2;ratioP2
79373;SDS011;68844;53.128;17.958;2023-09-30T00:01:46;8.10;;;5.80;;
79373;SDS011;68844;53.128;17.958;2023-09-30T00:04:13;9.40;;;6.50;;
79373;SDS011;68844;53.128;17.958;2023-09-30T00:06:39;7.90;;;6.30;;
79373;SDS011;68844;53.128;17.958;2023-09-30T00:09:06;7.20;;;6.50;;
79373;SDS011;68844;53.128;17.958;2023-09-30T00:11:33;11.10;;;6.40;;
79373;SDS011;68844;53.128;17.958;2023-09-30T00:14:01;7.50;;;6.10;;
79373;SDS011;68844;53.128;17.958;2023-09-30T00:16:27;7.90;;;5.50;;
79373;SDS011;68844;53.128;17.958;2023-09-30T00:18:54;7.00;;;5.30;;
79373;SDS011;68844;53.128;17.958;2023-09-30T00:21:21;7.00;;;5.50;;
79373;SDS011;68844;53.128;17.958;2023-09-30T00:23:48;8.80;;;6.30;;
79373;SDS011;68844;53.128;17.958;2023-09-30T00:26:15;9.20;;;6.40;;
79373;SDS011;68844;53.128;17.958;2023-09-30T00:28:43;8.40;;;5.50;;
79373;SDS011;68844;53.128;17.958;2023-09-30T00:31:09;7.60;;;5.60;;
79373;SDS011;68844;53.128;17.958;2023-09-30T00:33:37;7.90;;;5.50;;
79373;SDS011;68844;53.128;17.958;2023-09-30T00:39:37;7.00;;;5.80;;
79373;SDS011;68844;53.128;17.958;2023-09-30T00:42:03;8.40;;;5.90;;
79373;SDS011;68844;53.128;17.958;2023-09-30T00:44:31;7.70;;;5.00;;
79373;SDS011;68844;53.128;17.958;2023-09-30T00:46:57;8.10;;;5.00;;
79373;SDS011;68844;53.128;17.958;2023-09-30T00:49:26;6.90;;;5.30;;
79373;SDS011;68844;53.128;17.958;2023-09-30T00:51:55;8.60;;;6.10;;
79373;SDS011;68844;53.128;17.958;2023-09-30T00:54:23;8.60;;;5.70;;
79373;SDS011;68844;53.128;17.958;2023-09-30T00:56:53;8.80;;;5.70;;
79373;SDS011;68844;53.128;17.958;2023-09-30T00:59:27;5.70;;;5.00;;
79373;SDS011;68844;53.128;17.958;2023-09-30T01:01:58;8.30;;;5.60;;
79373;SDS011;68844;53.128;17.958;2023-09-30T01:04:26;7.20;;;5.40;;
79373;SDS011;68844;53.128;17.958;2023-09-30T01:06:53;6.40;;;5.00;;
79373;SDS011;68844;53.128;17.958;2023-09-30T01:09:20;8.20;;;5.80;;
79373;SDS011;68844;53.128;17.958;2023-09-30T01:11:47;7.40;;;5.60;;
79373;SDS011;68844;53.128;17.958;2023-09-30T01:14:27;7.60;;;5.40;;
79373;SDS011;68844;53.128;17.958;2023-09-30T01:16:55;6.90;;;5.40;;
79373;SDS011;68844;53.128;17.958;2023-09-30T01:19:24;9.00;;;6.20;;
79373;SDS011;68844;53.128;17.958;2023-09-30T01:21:55;8.70;;;5.40;;
79373;SDS011;68844;53.128;17.958;2023-09-30T01:24:26;7.00;;;6.00;;
79373;SDS011;68844;53.128;17.958;2023-09-30T01:26:53;8.20;;;6.30;;
79373;SDS011;68844;53.128;17.958;2023-09-30T01:29:20;7.30;;;5.10;;
79373;SDS011;68844;53.128;17.958;2023-09-30T01:31:48;6.80;;;5.60;;
79373;SDS011;68844;53.128;17.958;2023-09-30T01:34:16;7.80;;;6.20;;
79373;SDS011;68844;53.128;17.958;2023-09-30T01:36:43;7.60;;;5.70;;
79373;SDS011;68844;53.128;17.958;2023-09-30T01:39:10;6.60;;;5.90;;
79373;SDS011;68844;53.128;17.958;2023-09-30T01:41:39;8.00;;;5.30;;
79373;SDS011;68844;53.128;17.958;2023-09-30T01:44:07;7.50;;;5.70;;
79373;SDS011;68844;53.128;17.958;2023-09-30T01:46:36;6.30;;;5.40;;
79373;SDS011;68844;53.128;17.958;2023-09-30T01:49:03;9.70;;;5.70;;
79373;SDS011;68844;53.128;17.958;2023-09-30T01:51:30;6.80;;;5.30;;
79373;SDS011;68844;53.128;17.958;2023-09-30T01:53:58;6.80;;;5.50;;
79373;SDS011;68844;53.128;17.958;2023-09-30T01:56:25;6.40;;;5.20;;
79373;SDS011;68844;53.128;17.958;2023-09-30T01:58:52;6.90;;;5.80;;
79373;SDS011;68844;53.128;17.958;2023-09-30T02:01:19;7.40;;;5.50;;
79373;SDS011;68844;53.128;17.958;2023-09-30T02:03:46;6.70;;;5.50;;
79373;SDS011;68844;53.128;17.958;2023-09-30T02:06:13;7.30;;;6.40;;
79373;SDS011;68844;53.128;17.958;2023-09-30T02:08:40;7.80;;;5.80;;
79373;SDS011;68844;53.128;17.958;2023-09-30T02:11:07;7.60;;;5.70;;
79373;SDS011;68844;53.128;17.958;2023-09-30T02:13:34;7.80;;;6.70;;
79373;SDS011;68844;53.128;17.958;2023-09-30T02:16:03;13.60;;;7.00;;
79373;SDS011;68844;53.128;17.958;2023-09-30T02:18:30;9.40;;;6.30;;
79373;SDS011;68844;53.128;17.958;2023-09-30T02:21:00;12.20;;;6.90;;
79373;SDS011;68844;53.128;17.958;2023-09-30T02:23:26;8.80;;;7.00;;
79373;SDS011;68844;53.128;17.958;2023-09-30T02:25:53;8.90;;;7.20;;
79373;SDS011;68844;53.128;17.958;2023-09-30T02:28:20;9.70;;;6.90;;
79373;SDS011;68844;53.128;17.958;2023-09-30T02:30:47;8.80;;;6.60;;
79373;SDS011;68844;53.128;17.958;2023-09-30T02:33:15;7.30;;;5.90;;
79373;SDS011;68844;53.128;17.958;2023-09-30T02:35:44;7.30;;;6.30;;
79373;SDS011;68844;53.128;17.958;2023-09-30T02:38:12;8.70;;;7.00;;
79373;SDS011;68844;53.128;17.958;2023-09-30T02:40:42;11.60;;;7.10;;
79373;SDS011;68844;53.128;17.958;2023-09-30T02:43:12;12.30;;;8.00;;
79373;SDS011;68844;53.128;17.958;2023-09-30T02:45:40;9.80;;;7.20;;
79373;SDS011;68844;53.128;17.958;2023-09-30T02:48:06;11.20;;;7.40;;
79373;SDS011;68844;53.128;17.958;2023-09-30T02:50:35;10.60;;;7.30;;
79373;SDS011;68844;53.128;17.958;2023-09-30T02:53:02;9.70;;;7.70;;
79373;SDS011;68844;53.128;17.958;2023-09-30T02:55:28;10.90;;;8.20;;
79373;SDS011;68844;53.128;17.958;2023-09-30T02:57:55;10.30;;;8.40;;
79373;SDS011;68844;53.128;17.958;2023-09-30T03:00:22;10.50;;;7.80;;
79373;SDS011;68844;53.128;17.958;2023-09-30T03:02:53;8.50;;;6.50;;
79373;SDS011;68844;53.128;17.958;2023-09-30T03:05:21;10.20;;;8.40;;
79373;SDS011;68844;53.128;17.958;2023-09-30T03:07:48;9.80;;;8.00;;
79373;SDS011;68844;53.128;17.958;2023-09-30T03:10:18;13.00;;;9.10;;
79373;SDS011;68844;53.128;17.958;2023-09-30T03:12:50;11.10;;;8.60;;
79373;SDS011;68844;53.128;17.958;2023-09-30T03:15:18;10.30;;;7.10;;
79373;SDS011;68844;53.128;17.958;2023-09-30T03:17:45;10.60;;;8.60;;
79373;SDS011;68844;53.128;17.958;2023-09-30T03:20:12;10.80;;;9.20;;
79373;SDS011;68844;53.128;17.958;2023-09-30T03:22:41;11.70;;;8.20;;
79373;SDS011;68844;53.128;17.958;2023-09-30T03:27:36;10.50;;;8.00;;
79373;SDS011;68844;53.128;17.958;2023-09-30T03:30:04;10.70;;;8.30;;
79373;SDS011;68844;53.128;17.958;2023-09-30T03:32:32;10.10;;;8.30;;
79373;SDS011;68844;53.128;17.958;2023-09-30T03:35:00;8.70;;;7.70;;
79373;SDS011;68844;53.128;17.958;2023-09-30T03:37:27;10.70;;;7.80;;
79373;SDS011;68844;53.128;17.958;2023-09-30T03:39:54;8.80;;;7.90;;
79373;SDS011;68844;53.128;17.958;2023-09-30T03:42:21;8.40;;;7.50;;
79373;SDS011;68844;53.128;17.958;2023-09-30T03:44:48;9.00;;;7.70;;
79373;SDS011;68844;53.128;17.958;2023-09-30T03:47:16;6.50;;;5.80;;
79373;SDS011;68844;53.128;17.958;2023-09-30T03:49:43;7.90;;;7.00;;
79373;SDS011;68844;53.128;17.958;2023-09-30T03:52:10;7.00;;;6.30;;
79373;SDS011;68844;53.128;17.958;2023-09-30T03:54:38;6.00;;;4.90;;
79373;SDS011;68844;53.128;17.958;2023-09-30T03:57:05;4.30;;;2.30;;
79373;SDS011;68844;53.128;17.958;2023-09-30T03:59:31;2.90;;;1.70;;
79373;SDS011;68844;53.128;17.958;2023-09-30T04:01:58;3.70;;;1.70;;
79373;SDS011;68844;53.128;17.958;2023-09-30T04:04:25;2.40;;;1.40;;
79373;SDS011;68844;53.128;17.958;2023-09-30T04:06:52;2.90;;;1.60;;
79373;SDS011;68844;53.128;17.958;2023-09-30T04:09:19;2.30;;;1.00;;
79373;SDS011;68844;53.128;17.958;2023-09-30T04:11:46;4.30;;;1.00;;
79373;SDS011;68844;53.128;17.958;2023-09-30T04:14:12;1.90;;;0.70;;
79373;SDS011;68844;53.128;17.958;2023-09-30T04:16:39;2.30;;;0.90;;
79373;SDS011;68844;53.128;17.958;2023-09-30T04:19:07;2.50;;;0.70;;
79373;SDS011;68844;53.128;17.958;2023-09-30T04:21:36;2.90;;;0.80;;
79373;SDS011;68844;53.128;17.958;2023-09-30T04:24:05;2.70;;;0.90;;
79373;SDS011;68844;53.128;17.958;2023-09-30T04:26:33;2.40;;;0.90;;
79373;SDS011;68844;53.128;17.958;2023-09-30T04:28:59;1.80;;;0.60;;
79373;SDS011;68844;53.128;17.958;2023-09-30T04:31:31;1.70;;;0.60;;
79373;SDS011;68844;53.128;17.958;2023-09-30T04:33:58;1.10;;;0.30;;
79373;SDS011;68844;53.128;17.958;2023-09-30T04:36:24;2.20;;;0.80;;
79373;SDS011;68844;53.128;17.958;2023-09-30T04:38:51;2.20;;;0.80;;
79373;SDS011;68844;53.128;17.958;2023-09-30T04:41:18;2.20;;;0.60;;
79373;SDS011;68844;53.128;17.958;2023-09-30T04:43:45;2.30;;;0.50;;
79373;SDS011;68844;53.128;17.958;2023-09-30T04:46:12;1.70;;;0.60;;
79373;SDS011;68844;53.128;17.958;2023-09-30T04:48:39;2.60;;;0.70;;
79373;SDS011;68844;53.128;17.958;2023-09-30T04:51:06;2.90;;;0.60;;
79373;SDS011;68844;53.128;17.958;2023-09-30T04:53:34;2.40;;;0.80;;
79373;SDS011;68844;53.128;17.958;2023-09-30T04:56:02;2.80;;;0.60;;
79373;SDS011;68844;53.128;17.958;2023-09-30T05:03:22;2.40;;;0.50;;
79373;SDS011;68844;53.128;17.958;2023-09-30T05:08:20;1.70;;;0.50;;
79373;SDS011;68844;53.128;17.958;2023-09-30T05:10:46;1.50;;;0.50;;
79373;SDS011;68844;53.128;17.958;2023-09-30T05:13:13;1.80;;;0.70;;
79373;SDS011;68844;53.128;17.958;2023-09-30T05:15:40;2.00;;;0.50;;
79373;SDS011;68844;53.128;17.958;2023-09-30T05:18:08;2.60;;;0.60;;
79373;SDS011;68844;53.128;17.958;2023-09-30T05:20:35;5.00;;;1.20;;
79373;SDS011;68844;53.128;17.958;2023-09-30T05:32:50;2.10;;;0.60;;
79373;SDS011;68844;53.128;17.958;2023-09-30T05:35:18;3.50;;;1.00;;
79373;SDS011;68844;53.128;17.958;2023-09-30T05:37:48;2.30;;;0.60;;
79373;SDS011;68844;53.128;17.958;2023-09-30T05:40:19;3.40;;;0.70;;
79373;SDS011;68844;53.128;17.958;2023-09-30T05:42:53;5.00;;;1.20;;
79373;SDS011;68844;53.128;17.958;2023-09-30T05:45:24;8.10;;;1.20;;
79373;SDS011;68844;53.128;17.958;2023-09-30T05:47:54;3.00;;;0.90;;
79373;SDS011;68844;53.128;17.958;2023-09-30T05:50:23;4.80;;;1.20;;
79373;SDS011;68844;53.128;17.958;2023-09-30T05:52:53;3.10;;;0.80;;
79373;SDS011;68844;53.128;17.958;2023-09-30T05:55:24;3.40;;;0.70;;
79373;SDS011;68844;53.128;17.958;2023-09-30T05:57:51;6.90;;;1.40;;
79373;SDS011;68844;53.128;17.958;2023-09-30T06:00:18;6.20;;;1.30;;
79373;SDS011;68844;53.128;17.958;2023-09-30T06:02:57;4.00;;;1.20;;
79373;SDS011;68844;53.128;17.958;2023-09-30T06:05:24;5.80;;;0.80;;
79373;SDS011;68844;53.128;17.958;2023-09-30T06:07:56;5.40;;;1.20;;
79373;SDS011;68844;53.128;17.958;2023-09-30T06:10:23;5.00;;;1.20;;
79373;SDS011;68844;53.128;17.958;2023-09-30T06:12:51;3.30;;;0.80;;
79373;SDS011;68844;53.128;17.958;2023-09-30T06:15:21;3.90;;;1.00;;
79373;SDS011;68844;53.128;17.958;2023-09-30T06:17:52;4.40;;;0.80;;
79373;SDS011;68844;53.128;17.958;2023-09-30T06:20:19;1.70;;;0.50;;
79373;SDS011;68844;53.128;17.958;2023-09-30T06:22:48;3.70;;;1.00;;
79373;SDS011;68844;53.128;17.958;2023-09-30T06:25:16;3.20;;;1.20;;
79373;SDS011;68844;53.128;17.958;2023-09-30T06:27:44;3.50;;;1.10;;
79373;SDS011;68844;53.128;17.958;2023-09-30T06:30:11;4.00;;;0.80;;
79373;SDS011;68844;53.128;17.958;2023-09-30T06:32:39;2.80;;;1.20;;
79373;SDS011;68844;53.128;17.958;2023-09-30T06:35:09;3.50;;;1.40;;
79373;SDS011;68844;53.128;17.958;2023-09-30T06:37:39;5.40;;;1.70;;
79373;SDS011;68844;53.128;17.958;2023-09-30T06:40:06;5.30;;;1.50;;
79373;SDS011;68844;53.128;17.958;2023-09-30T06:42:35;4.60;;;1.20;;
79373;SDS011;68844;53.128;17.958;2023-09-30T06:45:04;3.60;;;0.80;;
79373;SDS011;68844;53.128;17.958;2023-09-30T06:47:34;4.50;;;1.10;;
79373;SDS011;68844;53.128;17.958;2023-09-30T06:50:07;5.30;;;1.40;;
79373;SDS011;68844;53.128;17.958;2023-09-30T06:52:36;4.00;;;1.20;;
79373;SDS011;68844;53.128;17.958;2023-09-30T06:55:05;4.70;;;1.10;;
79373;SDS011;68844;53.128;17.958;2023-09-30T06:57:36;6.80;;;1.80;;
79373;SDS011;68844;53.128;17.958;2023-09-30T07:00:07;5.70;;;1.70;;
79373;SDS011;68844;53.128;17.958;2023-09-30T07:02:36;3.70;;;1.10;;
79373;SDS011;68844;53.128;17.958;2023-09-30T07:05:07;5.40;;;1.30;;
79373;SDS011;68844;53.128;17.958;2023-09-30T07:07:38;2.80;;;1.20;;
79373;SDS011;68844;53.128;17.958;2023-09-30T07:10:11;6.30;;;1.40;;
79373;SDS011;68844;53.128;17.958;2023-09-30T07:12:38;4.10;;;1.60;;
79373;SDS011;68844;53.128;17.958;2023-09-30T07:15:05;3.20;;;1.60;;
79373;SDS011;68844;53.128;17.958;2023-09-30T07:17:33;4.60;;;1.50;;
79373;SDS011;68844;53.128;17.958;2023-09-30T07:20:01;5.30;;;1.90;;
79373;SDS011;68844;53.128;17.958;2023-09-30T07:22:28;4.00;;;1.20;;
79373;SDS011;68844;53.128;17.958;2023-09-30T07:24:55;3.70;;;1.50;;
79373;SDS011;68844;53.128;17.958;2023-09-30T07:27:22;3.90;;;1.80;;
79373;SDS011;68844;53.128;17.958;2023-09-30T07:29:48;4.50;;;1.60;;
79373;SDS011;68844;53.128;17.958;2023-09-30T07:32:15;3.20;;;1.40;;
79373;SDS011;68844;53.128;17.958;2023-09-30T07:34:42;3.90;;;1.60;;
79373;SDS011;68844;53.128;17.958;2023-09-30T07:37:10;5.00;;;1.80;;
79373;SDS011;68844;53.128;17.958;2023-09-30T07:39:36;4.10;;;1.90;;
79373;SDS011;68844;53.128;17.958;2023-09-30T07:42:03;3.80;;;1.50;;
79373;SDS011;68844;53.128;17.958;2023-09-30T07:44:30;6.00;;;2.20;;
79373;SDS011;68844;53.128;17.958;2023-09-30T07:46:58;3.40;;;2.00;;
79373;SDS011;68844;53.128;17.958;2023-09-30T07:49:24;3.70;;;1.80;;
79373;SDS011;68844;53.128;17.958;2023-09-30T07:51:51;4.40;;;1.70;;
79373;SDS011;68844;53.128;17.958;2023-09-30T07:54:18;5.10;;;2.00;;
79373;SDS011;68844;53.128;17.958;2023-09-30T07:56:44;5.40;;;2.10;;
79373;SDS011;68844;53.128;17.958;2023-09-30T07:59:11;4.20;;;1.70;;
79373;SDS011;68844;53.128;17.958;2023-09-30T08:01:37;3.20;;;1.60;;
79373;SDS011;68844;53.128;17.958;2023-09-30T08:04:04;5.00;;;2.00;;
79373;SDS011;68844;53.128;17.958;2023-09-30T08:06:31;3.50;;;1.80;;
79373;SDS011;68844;53.128;17.958;2023-09-30T08:08:58;6.60;;;2.10;;
79373;SDS011;68844;53.128;17.958;2023-09-30T08:11:24;5.70;;;1.90;;
79373;SDS011;68844;53.128;17.958;2023-09-30T08:13:57;4.80;;;1.80;;
79373;SDS011;68844;53.128;17.958;2023-09-30T08:16:25;8.80;;;2.40;;
79373;SDS011;68844;53.128;17.958;2023-09-30T08:18:52;4.00;;;2.00;;
79373;SDS011;68844;53.128;17.958;2023-09-30T08:21:18;5.20;;;2.10;;
79373;SDS011;68844;53.128;17.958;2023-09-30T08:23:45;6.50;;;2.10;;
79373;SDS011;68844;53.128;17.958;2023-09-30T08:26:11;4.20;;;1.80;;
79373;SDS011;68844;53.128;17.958;2023-09-30T08:28:38;4.30;;;1.80;;
79373;SDS011;68844;53.128;17.958;2023-09-30T08:31:05;4.10;;;1.90;;
79373;SDS011;68844;53.128;17.958;2023-09-30T08:33:32;3.80;;;1.50;;
79373;SDS011;68844;53.128;17.958;2023-09-30T08:36:02;5.70;;;2.00;;
79373;SDS011;68844;53.128;17.958;2023-09-30T08:38:37;6.30;;;2.30;;
79373;SDS011;68844;53.128;17.958;2023-09-30T08:41:05;4.40;;;2.10;;
79373;SDS011;68844;53.128;17.958;2023-09-30T08:43:32;4.80;;;1.70;;
79373;SDS011;68844;53.128;17.958;2023-09-30T08:46:05;7.00;;;2.50;;
79373;SDS011;68844;53.128;17.958;2023-09-30T08:48:33;5.90;;;2.20;;
79373;SDS011;68844;53.128;17.958;2023-09-30T08:51:00;4.50;;;1.90;;
79373;SDS011;68844;53.128;17.958;2023-09-30T08:53:28;3.80;;;1.90;;
79373;SDS011;68844;53.128;17.958;2023-09-30T08:55:56;4.80;;;2.00;;
79373;SDS011;68844;53.128;17.958;2023-09-30T08:58:26;5.30;;;1.80;;
79373;SDS011;68844;53.128;17.958;2023-09-30T09:00:54;4.10;;;1.80;;
79373;SDS011;68844;53.128;17.958;2023-09-30T09:03:22;6.10;;;2.20;;
79373;SDS011;68844;53.128;17.958;2023-09-30T09:05:53;3.10;;;1.20;;
79373;SDS011;68844;53.128;17.958;2023-09-30T09:08:26;5.80;;;1.70;;
79373;SDS011;68844;53.128;17.958;2023-09-30T09:10:54;3.80;;;1.30;;
79373;SDS011;68844;53.128;17.958;2023-09-30T09:13:23;4.60;;;1.60;;
79373;SDS011;68844;53.128;17.958;2023-09-30T09:16:06;4.40;;;1.80;;
79373;SDS011;68844;53.128;17.958;2023-09-30T09:18:37;6.20;;;1.80;;
79373;SDS011;68844;53.128;17.958;2023-09-30T09:21:20;4.20;;;1.50;;
79373;SDS011;68844;53.128;17.958;2023-09-30T09:23:50;4.40;;;1.80;;
79373;SDS011;68844;53.128;17.958;2023-09-30T09:28:58;3.60;;;1.80;;
79373;SDS011;68844;53.128;17.958;2023-09-30T09:31:26;4.20;;;1.80;;
79373;SDS011;68844;53.128;17.958;2023-09-30T09:33:54;3.80;;;1.70;;
79373;SDS011;68844;53.128;17.958;2023-09-30T09:36:22;6.40;;;1.70;;
79373;SDS011;68844;53.128;17.958;2023-09-30T09:39:06;6.30;;;2.20;;
79373;SDS011;68844;53.128;17.958;2023-09-30T09:41:33;6.70;;;1.90;;
79373;SDS011;68844;53.128;17.958;2023-09-30T09:44:16;5.30;;;2.00;;
79373;SDS011;68844;53.128;17.958;2023-09-30T09:46:43;7.70;;;1.70;;
79373;SDS011;68844;53.128;17.958;2023-09-30T09:49:12;6.30;;;2.10;;
79373;SDS011;68844;53.128;17.958;2023-09-30T09:51:39;3.90;;;1.60;;
79373;SDS011;68844;53.128;17.958;2023-09-30T09:54:06;3.90;;;2.00;;
79373;SDS011;68844;53.128;17.958;2023-09-30T09:56:33;6.90;;;1.90;;
79373;SDS011;68844;53.128;17.958;2023-09-30T09:59:02;4.40;;;1.90;;
79373;SDS011;68844;53.128;17.958;2023-09-30T10:01:30;6.20;;;1.60;;
79373;SDS011;68844;53.128;17.958;2023-09-30T10:04:01;5.10;;;2.00;;
79373;SDS011;68844;53.128;17.958;2023-09-30T10:06:28;4.40;;;1.80;;
79373;SDS011;68844;53.128;17.958;2023-09-30T10:08:55;3.90;;;1.50;;
79373;SDS011;68844;53.128;17.958;2023-09-30T10:11:23;4.90;;;1.70;;
79373;SDS011;68844;53.128;17.958;2023-09-30T10:21:39;4.40;;;1.80;;
79373;SDS011;68844;53.128;17.958;2023-09-30T10:35:43;4.50;;;1.60;;
79373;SDS011;68844;53.128;17.958;2023-09-30T10:41:13;5.40;;;2.10;;
79373;SDS011;68844;53.128;17.958;2023-09-30T10:50:49;5.90;;;1.80;;
79373;SDS011;68844;53.128;17.958;2023-09-30T10:53:22;4.20;;;1.60;;
79373;SDS011;68844;53.128;17.958;2023-09-30T10:55:54;4.10;;;1.50;;
79373;SDS011;68844;53.128;17.958;2023-09-30T10:58:42;3.80;;;1.40;;
79373;SDS011;68844;53.128;17.958;2023-09-30T11:01:16;5.60;;;1.80;;
79373;SDS011;68844;53.128;17.958;2023-09-30T11:03:46;5.90;;;1.80;;
79373;SDS011;68844;53.128;17.958;2023-09-30T11:06:19;5.00;;;1.70;;
79373;SDS011;68844;53.128;17.958;2023-09-30T11:08:53;4.40;;;1.90;;
79373;SDS011;68844;53.128;17.958;2023-09-30T11:11:33;5.20;;;1.40;;
79373;SDS011;68844;53.128;17.958;2023-09-30T11:14:19;4.10;;;1.40;;
79373;SDS011;68844;53.128;17.958;2023-09-30T11:16:51;3.90;;;1.80;;
79373;SDS011;68844;53.128;17.958;2023-09-30T11:19:21;3.20;;;1.40;;
79373;SDS011;68844;53.128;17.958;2023-09-30T11:21:49;4.40;;;1.30;;
79373;SDS011;68844;53.128;17.958;2023-09-30T11:24:26;4.40;;;1.20;;
79373;SDS011;68844;53.128;17.958;2023-09-30T11:26:57;3.20;;;1.20;;
79373;SDS011;68844;53.128;17.958;2023-09-30T11:29:25;4.20;;;1.30;;
79373;SDS011;68844;53.128;17.958;2023-09-30T11:31:55;3.00;;;0.90;;
79373;SDS011;68844;53.128;17.958;2023-09-30T11:40:39;5.70;;;1.50;;
79373;SDS011;68844;53.128;17.958;2023-09-30T11:43:09;3.70;;;1.20;;
79373;SDS011;68844;53.128;17.958;2023-09-30T11:45:38;3.60;;;1.40;;
79373;SDS011;68844;53.128;17.958;2023-09-30T11:48:18;4.40;;;1.60;;
79373;SDS011;68844;53.128;17.958;2023-09-30T11:50:49;3.90;;;1.30;;
79373;SDS011;68844;53.128;17.958;2023-09-30T11:53:17;5.10;;;1.60;;
79373;SDS011;68844;53.128;17.958;2023-09-30T11:58:12;3.50;;;1.00;;
79373;SDS011;68844;53.128;17.958;2023-09-30T12:00:44;5.40;;;1.60;;
79373;SDS011;68844;53.128;17.958;2023-09-30T12:03:12;4.50;;;1.30;;
79373;SDS011;68844;53.128;17.958;2023-09-30T12:05:38;2.00;;;0.80;;
79373;SDS011;68844;53.128;17.958;2023-09-30T12:08:05;4.60;;;1.30;;
79373;SDS011;68844;53.128;17.958;2023-09-30T12:10:33;2.00;;;0.80;;
79373;SDS011;68844;53.128;17.958;2023-09-30T12:13:00;3.80;;;1.20;;
79373;SDS011;68844;53.128;17.958;2023-09-30T12:15:27;3.70;;;1.10;;
79373;SDS011;68844;53.128;17.958;2023-09-30T12:17:54;4.30;;;1.10;;
79373;SDS011;68844;53.128;17.958;2023-09-30T12:20:20;3.00;;;1.00;;
79373;SDS011;68844;53.128;17.958;2023-09-30T12:22:47;3.20;;;1.00;;
79373;SDS011;68844;53.128;17.958;2023-09-30T12:25:15;2.60;;;0.90;;
79373;SDS011;68844;53.128;17.958;2023-09-30T12:27:43;4.50;;;1.70;;
79373;SDS011;68844;53.128;17.958;2023-09-30T12:30:12;3.60;;;1.20;;
79373;SDS011;68844;53.128;17.958;2023-09-30T12:32:40;3.60;;;1.10;;
79373;SDS011;68844;53.128;17.958;2023-09-30T12:35:07;3.10;;;0.90;;
79373;SDS011;68844;53.128;17.958;2023-09-30T12:37:34;6.30;;;1.20;;
79373;SDS011;68844;53.128;17.958;2023-09-30T12:40:01;4.80;;;1.40;;
79373;SDS011;68844;53.128;17.958;2023-09-30T12:42:29;3.10;;;0.90;;
79373;SDS011;68844;53.128;17.958;2023-09-30T12:44:56;3.90;;;1.10;;
79373;SDS011;68844;53.128;17.958;2023-09-30T12:47:23;4.40;;;1.30;;
79373;SDS011;68844;53.128;17.958;2023-09-30T12:49:49;4.30;;;1.10;;
79373;SDS011;68844;53.128;17.958;2023-09-30T12:52:16;4.50;;;1.20;;
79373;SDS011;68844;53.128;17.958;2023-09-30T12:54:43;3.50;;;1.10;;
79373;SDS011;68844;53.128;17.958;2023-09-30T12:57:09;4.40;;;1.10;;
79373;SDS011;68844;53.128;17.958;2023-09-30T12:59:39;4.60;;;0.80;;
79373;SDS011;68844;53.128;17.958;2023-09-30T13:02:05;3.00;;;0.90;;
79373;SDS011;68844;53.128;17.958;2023-09-30T13:04:32;2.90;;;0.80;;
79373;SDS011;68844;53.128;17.958;2023-09-30T13:06:59;4.80;;;0.90;;
79373;SDS011;68844;53.128;17.958;2023-09-30T13:09:25;3.30;;;1.00;;
79373;SDS011;68844;53.128;17.958;2023-09-30T13:11:52;3.10;;;1.10;;
79373;SDS011;68844;53.128;17.958;2023-09-30T13:14:19;4.70;;;1.30;;
79373;SDS011;68844;53.128;17.958;2023-09-30T13:16:45;3.10;;;0.90;;
79373;SDS011;68844;53.128;17.958;2023-09-30T13:19:12;5.10;;;1.30;;
79373;SDS011;68844;53.128;17.958;2023-09-30T13:21:38;4.20;;;1.10;;
79373;SDS011;68844;53.128;17.958;2023-09-30T13:24:07;5.20;;;1.30;;
79373;SDS011;68844;53.128;17.958;2023-09-30T13:26:36;4.90;;;0.90;;
79373;SDS011;68844;53.128;17.958;2023-09-30T13:29:03;3.70;;;1.30;;
79373;SDS011;68844;53.128;17.958;2023-09-30T13:31:31;2.90;;;1.00;;
79373;SDS011;68844;53.128;17.958;2023-09-30T13:33:58;3.20;;;0.80;;
79373;SDS011;68844;53.128;17.958;2023-09-30T13:36:24;3.30;;;0.80;;
79373;SDS011;68844;53.128;17.958;2023-09-30T13:38:51;2.50;;;0.50;;
79373;SDS011;68844;53.128;17.958;2023-09-30T13:41:18;3.20;;;0.70;;
79373;SDS011;68844;53.128;17.958;2023-09-30T13:43:44;3.50;;;0.70;;
79373;SDS011;68844;53.128;17.958;2023-09-30T13:46:11;4.70;;;1.20;;
79373;SDS011;68844;53.128;17.958;2023-09-30T13:48:38;4.90;;;1.00;;
79373;SDS011;68844;53.128;17.958;2023-09-30T13:51:05;4.80;;;1.20;;
79373;SDS011;68844;53.128;17.958;2023-09-30T13:53:33;2.60;;;0.80;;
79373;SDS011;68844;53.128;17.958;2023-09-30T13:55:59;5.00;;;1.50;;
79373;SDS011;68844;53.128;17.958;2023-09-30T13:58:26;5.70;;;1.20;;
79373;SDS011;68844;53.128;17.958;2023-09-30T14:00:53;4.00;;;1.10;;
79373;SDS011;68844;53.128;17.958;2023-09-30T14:03:20;2.80;;;0.90;;
79373;SDS011;68844;53.128;17.958;2023-09-30T14:05:46;4.90;;;0.90;;
79373;SDS011;68844;53.128;17.958;2023-09-30T14:08:13;4.20;;;1.00;;
79373;SDS011;68844;53.128;17.958;2023-09-30T14:10:40;4.00;;;1.20;;
79373;SDS011;68844;53.128;17.958;2023-09-30T14:13:07;5.40;;;1.60;;
79373;SDS011;68844;53.128;17.958;2023-09-30T14:15:34;4.50;;;1.30;;
79373;SDS011;68844;53.128;17.958;2023-09-30T14:18:00;4.10;;;1.00;;
79373;SDS011;68844;53.128;17.958;2023-09-30T14:20:28;4.70;;;1.50;;
79373;SDS011;68844;53.128;17.958;2023-09-30T14:22:55;5.90;;;1.50;;
79373;SDS011;68844;53.128;17.958;2023-09-30T14:25:22;3.00;;;1.00;;
79373;SDS011;68844;53.128;17.958;2023-09-30T14:27:49;3.60;;;1.00;;
79373;SDS011;68844;53.128;17.958;2023-09-30T14:30:16;4.20;;;1.20;;
79373;SDS011;68844;53.128;17.958;2023-09-30T14:32:43;6.90;;;1.10;;
79373;SDS011;68844;53.128;17.958;2023-09-30T14:35:09;3.20;;;1.10;;
79373;SDS011;68844;53.128;17.958;2023-09-30T14:37:36;4.60;;;1.40;;
79373;SDS011;68844;53.128;17.958;2023-09-30T14:40:03;4.20;;;1.20;;
79373;SDS011;68844;53.128;17.958;2023-09-30T14:42:37;5.00;;;1.10;;
79373;SDS011;68844;53.128;17.958;2023-09-30T14:45:04;3.70;;;1.10;;
79373;SDS011;68844;53.128;17.958;2023-09-30T14:47:31;3.70;;;0.90;;
79373;SDS011;68844;53.128;17.958;2023-09-30T14:49:58;3.50;;;0.80;;
79373;SDS011;68844;53.128;17.958;2023-09-30T14:52:28;4.50;;;0.80;;
79373;SDS011;68844;53.128;17.958;2023-09-30T14:54:55;3.20;;;0.60;;
79373;SDS011;68844;53.128;17.958;2023-09-30T14:57:21;3.30;;;0.80;;
79373;SDS011;68844;53.128;17.958;2023-09-30T14:59:48;2.70;;;1.10;;
79373;SDS011;68844;53.128;17.958;2023-09-30T15:02:15;3.90;;;0.80;;
79373;SDS011;68844;53.128;17.958;2023-09-30T15:04:42;4.00;;;1.10;;
79373;SDS011;68844;53.128;17.958;2023-09-30T15:07:09;4.30;;;0.90;;
79373;SDS011;68844;53.128;17.958;2023-09-30T15:09:36;4.50;;;0.90;;
79373;SDS011;68844;53.128;17.958;2023-09-30T15:12:03;5.00;;;0.70;;
79373;SDS011;68844;53.128;17.958;2023-09-30T15:14:30;3.00;;;0.90;;
79373;SDS011;68844;53.128;17.958;2023-09-30T15:16:57;2.80;;;0.60;;
79373;SDS011;68844;53.128;17.958;2023-09-30T15:19:23;3.40;;;0.90;;
79373;SDS011;68844;53.128;17.958;2023-09-30T15:21:50;4.00;;;1.00;;
79373;SDS011;68844;53.128;17.958;2023-09-30T15:24:17;3.90;;;0.80;;
79373;SDS011;68844;53.128;17.958;2023-09-30T15:26:43;5.20;;;1.00;;
79373;SDS011;68844;53.128;17.958;2023-09-30T15:29:10;4.30;;;1.00;;
79373;SDS011;68844;53.128;17.958;2023-09-30T15:31:37;3.10;;;0.90;;
79373;SDS011;68844;53.128;17.958;2023-09-30T15:34:04;3.90;;;1.00;;
79373;SDS011;68844;53.128;17.958;2023-09-30T15:36:32;3.70;;;0.80;;
79373;SDS011;68844;53.128;17.958;2023-09-30T15:38:58;5.00;;;1.00;;
79373;SDS011;68844;53.128;17.958;2023-09-30T15:41:25;4.30;;;1.40;;
79373;SDS011;68844;53.128;17.958;2023-09-30T15:43:52;4.30;;;1.20;;